createdAt,value
2022-11-16T00:00:24.248Z,10.09
2022-11-16T00:02:52.766Z,10.08
2022-11-16T00:05:25.501Z,10.08
2022-11-16T00:07:56.889Z,10.09
2022-11-16T00:10:25.213Z,10.09
2022-11-16T00:12:53.535Z,10.09
2022-11-16T00:15:21.773Z,10.11
2022-11-16T00:17:49.913Z,10.11
2022-11-16T00:20:18.393Z,10.10
2022-11-16T00:22:46.513Z,10.12
2022-11-16T00:25:15.032Z,10.11
2022-11-16T00:27:43.419Z,10.11
2022-11-16T00:30:12.043Z,10.11
2022-11-16T00:32:40.663Z,10.10
2022-11-16T00:35:09.301Z,10.09
2022-11-16T00:37:37.385Z,10.07
2022-11-16T00:40:06.177Z,10.04
2022-11-16T00:42:34.512Z,10.02
2022-11-16T00:45:03.247Z,10.03
2022-11-16T00:47:31.833Z,10.03
2022-11-16T00:50:00.236Z,10.03
2022-11-16T00:52:28.613Z,10.03
2022-11-16T00:54:57.452Z,10.05
2022-11-16T00:57:25.701Z,10.05
2022-11-16T00:59:54.096Z,10.04
2022-11-16T01:02:23.453Z,10.04
2022-11-16T01:04:52.112Z,10.03
2022-11-16T01:07:20.159Z,10.06
2022-11-16T01:09:48.873Z,10.06
2022-11-16T01:12:18.832Z,10.07
2022-11-16T01:14:48.369Z,10.07
2022-11-16T01:17:16.511Z,10.07
2022-11-16T01:19:44.750Z,10.06
2022-11-16T01:22:13.546Z,10.06
2022-11-16T01:24:42.180Z,10.06
2022-11-16T01:27:10.302Z,10.04
2022-11-16T01:29:41.246Z,10.03
2022-11-16T01:32:09.876Z,10.03
2022-11-16T01:34:38.326Z,10.02
2022-11-16T01:37:27.292Z,10.03
2022-11-16T01:39:55.856Z,10.03
2022-11-16T01:42:27.936Z,10.04
2022-11-16T01:45:29.127Z,10.03
2022-11-16T01:47:59.594Z,10.04
2022-11-16T01:50:32.643Z,10.05
2022-11-16T01:53:08.361Z,10.04
2022-11-16T01:55:48.076Z,10.04
2022-11-16T01:58:36.925Z,10.05
2022-11-16T02:01:23.994Z,10.01
2022-11-16T02:03:57.402Z,9.96
2022-11-16T02:06:28.922Z,9.90
2022-11-16T02:09:39.241Z,9.83
2022-11-16T02:12:08.995Z,9.80
2022-11-16T02:14:55.891Z,9.83
2022-11-16T02:17:31.680Z,9.86
2022-11-16T02:20:22.758Z,9.88
2022-11-16T02:23:19.316Z,9.92
2022-11-16T02:26:15.561Z,9.94
2022-11-16T02:28:47.171Z,9.94
2022-11-16T02:31:24.371Z,9.96
2022-11-16T02:33:56.865Z,9.96
2022-11-16T02:36:26.186Z,9.96
2022-11-16T02:39:09.992Z,9.94
2022-11-16T02:41:42.595Z,9.93
2022-11-16T02:44:18.700Z,9.88
2022-11-16T02:46:52.067Z,9.87
2022-11-16T02:49:24.452Z,9.88
2022-11-16T02:51:55.311Z,9.88
2022-11-16T02:54:25.791Z,9.90
2022-11-16T02:57:00.101Z,9.91
2022-11-16T02:59:52.076Z,9.93
2022-11-16T03:02:34.629Z,9.96
2022-11-16T03:05:21.009Z,9.95
2022-11-16T03:08:15.229Z,9.97
2022-11-16T03:11:06.865Z,9.97
2022-11-16T03:13:37.579Z,9.99
2022-11-16T03:16:15.380Z,9.98
2022-11-16T03:18:45.325Z,9.98
2022-11-16T03:21:33.280Z,9.98
2022-11-16T03:24:03.905Z,9.98
2022-11-16T03:26:49.426Z,9.98
2022-11-16T03:29:29.821Z,9.98
2022-11-16T03:32:13.904Z,9.98
2022-11-16T03:34:49.699Z,9.98
2022-11-16T03:37:21.143Z,9.96
2022-11-16T03:39:51.459Z,9.95
2022-11-16T03:42:22.580Z,9.95
2022-11-16T03:44:51.379Z,9.96
2022-11-16T03:47:19.940Z,9.98
2022-11-16T03:49:48.670Z,10.00
2022-11-16T03:52:19.705Z,10.01
2022-11-16T03:54:50.271Z,10.01
2022-11-16T03:57:18.895Z,10.01
2022-11-16T03:59:53.329Z,10.02
2022-11-16T04:02:22.195Z,10.01
2022-11-16T04:05:10.937Z,10.00
2022-11-16T04:07:57.942Z,10.02
2022-11-16T04:10:44.939Z,9.99
2022-11-16T04:13:34.030Z,9.97
2022-11-16T04:16:21.070Z,9.92
2022-11-16T04:19:07.601Z,9.88
2022-11-16T04:21:59.937Z,9.84
2022-11-16T04:24:37.600Z,9.85
2022-11-16T16:27:28.831Z,10.22
2022-11-16T16:29:58.921Z,10.29
2022-11-16T16:32:29.833Z,10.41
2022-11-16T16:35:00.601Z,10.52
2022-11-16T16:37:33.978Z,10.57
2022-11-16T16:40:02.857Z,10.66
2022-11-16T16:42:31.536Z,10.71
2022-11-16T16:45:01.387Z,10.79
2022-11-16T16:47:30.310Z,10.84
2022-11-16T16:49:58.943Z,10.84
2022-11-16T16:52:28.302Z,10.81
2022-11-16T16:54:56.664Z,10.85
2022-11-16T16:57:25.146Z,10.83
2022-11-16T16:59:53.763Z,10.87
2022-11-16T17:02:22.580Z,10.86
2022-11-16T17:04:50.982Z,10.88
2022-11-16T17:07:19.311Z,10.91
2022-11-16T17:09:48.128Z,10.80
2022-11-16T17:12:16.297Z,10.85
2022-11-16T17:14:52.070Z,10.88
2022-11-16T17:17:21.150Z,10.92
2022-11-16T17:19:49.548Z,10.79
2022-11-16T17:22:19.522Z,10.88
2022-11-16T17:24:48.011Z,10.88
2022-11-16T17:27:16.365Z,10.90
2022-11-16T17:29:45.026Z,10.85
2022-11-16T17:32:13.272Z,10.82
2022-11-16T17:34:41.827Z,10.85
2022-11-16T17:37:10.507Z,10.83
2022-11-16T17:39:39.117Z,10.81
